Watkinsville, GA

1:33 AM EDT on September 02, 2014 (GMT -0400)
RAWS WATKINSVILLE GA US | Change Station
CLOSE
Current Station
Personal Weather Station
Location: Watkinsville, GA
Elevation: 785 ft
Nearby Weather Stations

Elev 785 ft 33.89 °N, 83.42 °W | Updated 31 minutes ago

Partly Cloudy
Partly Cloudy
72 °F
Feels Like 72 °F
N
3
Wind Variable Wind from NNW
Gusts 4.0 mph

Today
High -- | Low -- °F
--% Chance of Precip.
Yesterday
High -- | Low -- °F
Precip. -- in
7:08 AM 7:57 PM
Waxing Crescent, 48% visible
Pressure 30.09 in
Visibility 10.0 miles
Clouds Clear
Dew Point 69 °F
Humidity 89%
Rainfall 0.00 in
Snow Depth Not available.
UV 0 out of 12
Pollen 8.90 out of 12
Air Quality Not available.
Flu Activity Not available.
METAR KAHN 020451Z AUTO 00000KT 10SM CLR 23/21 A3011 RMK AO2 SLP187 T02330211 403560217

More Conditions Fewer Conditions

Pressure 30.09 in
Visibility 10.0 miles
Clouds Clear
Dew Point 69 °F
Humidity 89%
Rainfall 0.00 in
Snow Depth Not available.
UV 0 out of 12
Pollen 8.90 out of 12
Air Quality Not available.
Flu Activity Not available.
METAR KAHN 020451Z AUTO 00000KT 10SM CLR 23/21 A3011 RMK AO2 SLP187 T02330211 403560217

More Conditions Fewer Conditions

10-Day Weather Forecast

Almanac

Astronomy

Sep. 02, 2014 Rise Set
Actual Time 7:08 AM EDT 7:57 PM EDT
Civil Twilight 6:42 AM EDT 8:23 PM EDT
Nautical Twilight 6:12 AM EDT 8:53 PM EDT
Astronomical Twilight 5:41 AM EDT 9:24 PM EDT
Moon 2:31 PM EDT 12:18 AM EDT
Length of Visible Light 13h 40m
Length of Day
12h 49m
Tomorrow will be 2m 1s shorter.
Waxing Crescent, 48% of the Moon is Illuminated
Today
Waxing Crescent
Sep 2
First Quarter
Sep 8
Full
Sep 15
Last Quarter
Sep 24
New

Today's Extremes

State Highs State Lows

Community

WunderPhotos

Upload Photos

1,749,579 photos uploaded!

WunderBlogs® & News

Nearby

Snow Depth

Station Depth Elevation
No new snow has been reported.

Earthquake Activity

City Distance Mag. Time & Date
No recent earthquake activity has been reported nearby.
Minimum magnitude displayed is 2.5.

Coastal Water Temperatures

Place Temperature
No Stations Reporting

Nearby Weather Stations